sensor_id;sensor_type;location;lat;lon;timestamp;pressure;altitude;pressure_sealevel;temperature;humidity
41531;BME280;58990;46.284;13.126;2022-10-16T00:00:36;99762.72;;;12.16;85.22
41531;BME280;58990;46.284;13.126;2022-10-16T00:03:04;99766.50;;;12.14;85.39
41531;BME280;58990;46.284;13.126;2022-10-16T00:05:30;99768.31;;;12.13;85.00
41531;BME280;58990;46.284;13.126;2022-10-16T00:07:56;99765.56;;;12.06;85.09
41531;BME280;58990;46.284;13.126;2022-10-16T00:10:22;99769.38;;;12.04;84.79
41531;BME280;58990;46.284;13.126;2022-10-16T00:12:47;99761.66;;;12.02;85.37
41531;BME280;58990;46.284;13.126;2022-10-16T00:15:13;99767.56;;;12.04;85.30
41531;BME280;58990;46.284;13.126;2022-10-16T00:17:38;99770.56;;;12.01;84.71
41531;BME280;58990;46.284;13.126;2022-10-16T00:20:04;99766.91;;;12.02;84.71
41531;BME280;58990;46.284;13.126;2022-10-16T00:22:30;99772.53;;;11.99;84.75
41531;BME280;58990;46.284;13.126;2022-10-16T00:24:55;99774.56;;;11.97;84.52
41531;BME280;58990;46.284;13.126;2022-10-16T00:27:21;99781.25;;;12.00;84.30
41531;BME280;58990;46.284;13.126;2022-10-16T00:29:50;99783.06;;;11.99;84.54
41531;BME280;58990;46.284;13.126;2022-10-16T00:32:16;99778.16;;;11.96;84.53
41531;BME280;58990;46.284;13.126;2022-10-16T00:34:42;99786.25;;;11.94;84.64
41531;BME280;58990;46.284;13.126;2022-10-16T00:37:07;99795.91;;;11.94;84.55
41531;BME280;58990;46.284;13.126;2022-10-16T00:39:33;99798.22;;;11.89;84.93
41531;BME280;58990;46.284;13.126;2022-10-16T00:41:58;99794.75;;;11.97;84.34
41531;BME280;58990;46.284;13.126;2022-10-16T00:44:48;99799.88;;;11.90;84.35
41531;BME280;58990;46.284;13.126;2022-10-16T01:05:44;99799.06;;;11.89;84.48
41531;BME280;58990;46.284;13.126;2022-10-16T01:08:23;99800.72;;;11.90;84.98
41531;BME280;58990;46.284;13.126;2022-10-16T01:10:58;99800.84;;;11.89;84.34
41531;BME280;58990;46.284;13.126;2022-10-16T01:13:32;99808.13;;;11.87;84.98
41531;BME280;58990;46.284;13.126;2022-10-16T01:16:06;99804.94;;;11.91;85.35
41531;BME280;58990;46.284;13.126;2022-10-16T01:31:44;99808.78;;;12.12;86.34
41531;BME280;58990;46.284;13.126;2022-10-16T01:34:19;99814.06;;;12.12;86.85
41531;BME280;58990;46.284;13.126;2022-10-16T01:36:51;99819.25;;;12.20;86.47
41531;BME280;58990;46.284;13.126;2022-10-16T01:39:22;99820.97;;;12.28;86.08
41531;BME280;58990;46.284;13.126;2022-10-16T01:41:55;99816.84;;;12.49;84.01
41531;BME280;58990;46.284;13.126;2022-10-16T01:44:26;99811.53;;;12.72;82.58
41531;BME280;58990;46.284;13.126;2022-10-16T01:46:54;99817.69;;;12.94;80.74
41531;BME280;58990;46.284;13.126;2022-10-16T01:49:21;99822.78;;;13.10;80.32
41531;BME280;58990;46.284;13.126;2022-10-16T01:51:51;99827.19;;;13.25;78.97
41531;BME280;58990;46.284;13.126;2022-10-16T01:54:18;99829.94;;;13.32;78.27
41531;BME280;58990;46.284;13.126;2022-10-16T01:56:45;99836.16;;;13.39;77.61
41531;BME280;58990;46.284;13.126;2022-10-16T01:59:15;99830.91;;;13.45;77.11
41531;BME280;58990;46.284;13.126;2022-10-16T02:01:45;99827.09;;;13.48;76.79
41531;BME280;58990;46.284;13.126;2022-10-16T02:04:20;99834.66;;;13.51;76.86
41531;BME280;58990;46.284;13.126;2022-10-16T02:06:47;99831.19;;;13.51;77.74
41531;BME280;58990;46.284;13.126;2022-10-16T02:09:12;99845.00;;;13.53;77.33
41531;BME280;58990;46.284;13.126;2022-10-16T02:11:40;99829.81;;;13.55;76.47
41531;BME280;58990;46.284;13.126;2022-10-16T02:14:07;99834.72;;;13.58;76.54
41531;BME280;58990;46.284;13.126;2022-10-16T02:16:35;99835.53;;;13.58;76.80
41531;BME280;58990;46.284;13.126;2022-10-16T02:19:00;99837.59;;;13.63;76.44
41531;BME280;58990;46.284;13.126;2022-10-16T02:21:29;99830.72;;;13.62;76.02
41531;BME280;58990;46.284;13.126;2022-10-16T02:39:38;99832.56;;;13.46;75.30
41531;BME280;58990;46.284;13.126;2022-10-16T02:42:11;99825.66;;;13.45;75.46
41531;BME280;58990;46.284;13.126;2022-10-16T02:44:37;99831.75;;;13.46;75.22
41531;BME280;58990;46.284;13.126;2022-10-16T02:47:02;99830.91;;;13.45;75.38
41531;BME280;58990;46.284;13.126;2022-10-16T02:49:28;99831.03;;;13.37;75.82
41531;BME280;58990;46.284;13.126;2022-10-16T02:51:53;99827.94;;;13.34;76.08
41531;BME280;58990;46.284;13.126;2022-10-16T02:54:18;99834.13;;;13.26;75.83
41531;BME280;58990;46.284;13.126;2022-10-16T02:56:44;99833.13;;;13.27;76.14
41531;BME280;58990;46.284;13.126;2022-10-16T02:59:09;99831.47;;;13.26;76.60
41531;BME280;58990;46.284;13.126;2022-10-16T03:01:35;99833.56;;;13.16;76.78
41531;BME280;58990;46.284;13.126;2022-10-16T03:04:00;99831.69;;;13.09;77.33
41531;BME280;58990;46.284;13.126;2022-10-16T03:06:26;99839.03;;;13.14;76.55
41531;BME280;58990;46.284;13.126;2022-10-16T03:08:51;99843.22;;;13.08;76.94
41531;BME280;58990;46.284;13.126;2022-10-16T03:11:16;99839.13;;;13.06;77.26
41531;BME280;58990;46.284;13.126;2022-10-16T03:13:42;99841.75;;;13.06;77.40
41531;BME280;58990;46.284;13.126;2022-10-16T03:16:07;99834.22;;;13.03;77.58
41531;BME280;58990;46.284;13.126;2022-10-16T03:18:33;99834.41;;;13.01;77.52
41531;BME280;58990;46.284;13.126;2022-10-16T03:20:58;99827.78;;;13.05;77.12
41531;BME280;58990;46.284;13.126;2022-10-16T03:23:23;99826.94;;;13.05;76.55
41531;BME280;58990;46.284;13.126;2022-10-16T03:25:49;99828.41;;;13.07;76.38
41531;BME280;58990;46.284;13.126;2022-10-16T03:28:14;99826.75;;;13.06;76.32
41531;BME280;58990;46.284;13.126;2022-10-16T03:30:40;99823.59;;;13.11;76.07
41531;BME280;58990;46.284;13.126;2022-10-16T03:33:05;99817.53;;;13.10;76.17
41531;BME280;58990;46.284;13.126;2022-10-16T03:35:31;99826.84;;;13.13;76.33
41531;BME280;58990;46.284;13.126;2022-10-16T03:37:57;99824.97;;;13.07;76.75
41531;BME280;58990;46.284;13.126;2022-10-16T03:40:23;99821.88;;;13.03;77.05
41531;BME280;58990;46.284;13.126;2022-10-16T03:42:48;99823.50;;;13.04;76.78
41531;BME280;58990;46.284;13.126;2022-10-16T03:45:14;99823.03;;;13.01;77.21
41531;BME280;58990;46.284;13.126;2022-10-16T03:47:39;99816.97;;;13.00;77.01
41531;BME280;58990;46.284;13.126;2022-10-16T03:50:05;99817.44;;;13.04;77.22
41531;BME280;58990;46.284;13.126;2022-10-16T03:52:30;99827.41;;;13.08;76.60
41531;BME280;58990;46.284;13.126;2022-10-16T03:54:57;99832.03;;;13.06;76.77
41531;BME280;58990;46.284;13.126;2022-10-16T03:57:22;99838.13;;;13.07;76.40
41531;BME280;58990;46.284;13.126;2022-10-16T03:59:48;99836.69;;;13.04;76.31
41531;BME280;58990;46.284;13.126;2022-10-16T04:02:13;99845.75;;;13.02;76.39
41531;BME280;58990;46.284;13.126;2022-10-16T04:04:38;99844.50;;;12.98;76.68
41531;BME280;58990;46.284;13.126;2022-10-16T04:07:04;99847.75;;;12.85;77.19
41531;BME280;58990;46.284;13.126;2022-10-16T04:09:29;99844.22;;;12.77;77.71
41531;BME280;58990;46.284;13.126;2022-10-16T04:11:55;99847.84;;;12.76;77.34
41531;BME280;58990;46.284;13.126;2022-10-16T04:14:20;99853.09;;;12.76;77.62
41531;BME280;58990;46.284;13.126;2022-10-16T04:16:46;99848.38;;;12.72;77.75
41531;BME280;58990;46.284;13.126;2022-10-16T04:19:11;99850.28;;;12.78;77.61
41531;BME280;58990;46.284;13.126;2022-10-16T04:21:37;99853.38;;;12.82;77.57
41531;BME280;58990;46.284;13.126;2022-10-16T04:24:02;99850.03;;;12.88;77.31
41531;BME280;58990;46.284;13.126;2022-10-16T04:26:29;99858.22;;;12.93;77.05
41531;BME280;58990;46.284;13.126;2022-10-16T04:28:54;99855.50;;;13.01;76.43
41531;BME280;58990;46.284;13.126;2022-10-16T04:31:20;99852.22;;;12.99;76.43
41531;BME280;58990;46.284;13.126;2022-10-16T04:33:45;99852.59;;;12.96;76.37
41531;BME280;58990;46.284;13.126;2022-10-16T04:36:11;99860.50;;;12.96;76.51
41531;BME280;58990;46.284;13.126;2022-10-16T04:38:36;99862.28;;;12.95;76.61
41531;BME280;58990;46.284;13.126;2022-10-16T04:41:03;99863.13;;;12.96;76.44
41531;BME280;58990;46.284;13.126;2022-10-16T04:43:29;99866.56;;;12.96;76.32
41531;BME280;58990;46.284;13.126;2022-10-16T04:45:54;99859.56;;;12.89;76.53
41531;BME280;58990;46.284;13.126;2022-10-16T04:48:21;99858.94;;;12.87;76.41
41531;BME280;58990;46.284;13.126;2022-10-16T04:50:47;99853.94;;;12.92;76.15
41531;BME280;58990;46.284;13.126;2022-10-16T04:53:12;99841.13;;;12.89;76.55
41531;BME280;58990;46.284;13.126;2022-10-16T04:55:38;99838.84;;;12.86;76.50
41531;BME280;58990;46.284;13.126;2022-10-16T04:58:04;99835.50;;;12.92;76.42
41531;BME280;58990;46.284;13.126;2022-10-16T05:00:29;99824.50;;;13.03;75.71
41531;BME280;58990;46.284;13.126;2022-10-16T05:02:55;99822.63;;;12.97;75.84
41531;BME280;58990;46.284;13.126;2022-10-16T05:05:20;99828.41;;;12.92;76.20
41531;BME280;58990;46.284;13.126;2022-10-16T05:07:46;99825.69;;;12.86;76.59
41531;BME280;58990;46.284;13.126;2022-10-16T05:10:12;99811.63;;;12.78;76.85
41531;BME280;58990;46.284;13.126;2022-10-16T05:12:37;99817.41;;;12.74;77.16
41531;BME280;58990;46.284;13.126;2022-10-16T05:15:03;99808.41;;;12.68;77.44
41531;BME280;58990;46.284;13.126;2022-10-16T05:17:29;99822.47;;;12.60;78.14
41531;BME280;58990;46.284;13.126;2022-10-16T05:19:54;99821.94;;;12.50;78.37
41531;BME280;58990;46.284;13.126;2022-10-16T05:22:20;99833.16;;;12.44;78.80
41531;BME280;58990;46.284;13.126;2022-10-16T05:24:45;99838.34;;;12.37;79.12
41531;BME280;58990;46.284;13.126;2022-10-16T05:27:11;99847.25;;;12.36;79.05
41531;BME280;58990;46.284;13.126;2022-10-16T05:29:47;99845.25;;;12.38;79.00
41531;BME280;58990;46.284;13.126;2022-10-16T05:32:17;99845.25;;;12.38;79.11
41531;BME280;58990;46.284;13.126;2022-10-16T05:34:43;99839.59;;;12.41;79.24
41531;BME280;58990;46.284;13.126;2022-10-16T05:37:09;99843.81;;;12.51;78.42
41531;BME280;58990;46.284;13.126;2022-10-16T05:39:34;99846.03;;;12.62;78.01
41531;BME280;58990;46.284;13.126;2022-10-16T05:42:02;99836.41;;;12.69;77.32
41531;BME280;58990;46.284;13.126;2022-10-16T05:44:27;99851.84;;;12.72;77.25
41531;BME280;58990;46.284;13.126;2022-10-16T05:46:52;99846.75;;;12.71;77.27
41531;BME280;58990;46.284;13.126;2022-10-16T05:49:18;99857.47;;;12.69;77.66
41531;BME280;58990;46.284;13.126;2022-10-16T05:51:43;99867.63;;;12.72;77.35
41531;BME280;58990;46.284;13.126;2022-10-16T05:54:09;99873.84;;;12.79;76.93
41531;BME280;58990;46.284;13.126;2022-10-16T05:56:34;99865.19;;;12.86;76.55
41531;BME280;58990;46.284;13.126;2022-10-16T05:59:00;99871.75;;;12.90;76.09
41531;BME280;58990;46.284;13.126;2022-10-16T06:01:25;99872.72;;;12.89;75.97
41531;BME280;58990;46.284;13.126;2022-10-16T06:03:51;99871.47;;;12.85;76.36
41531;BME280;58990;46.284;13.126;2022-10-16T06:06:21;99881.00;;;12.86;76.10
41531;BME280;58990;46.284;13.126;2022-10-16T06:08:48;99881.66;;;12.88;76.19
41531;BME280;58990;46.284;13.126;2022-10-16T06:11:17;99882.47;;;12.88;76.48
41531;BME280;58990;46.284;13.126;2022-10-16T06:13:42;99887.47;;;12.98;76.22
41531;BME280;58990;46.284;13.126;2022-10-16T06:16:09;99894.84;;;13.03;75.95
41531;BME280;58990;46.284;13.126;2022-10-16T06:18:35;99892.91;;;13.11;75.49
41531;BME280;58990;46.284;13.126;2022-10-16T06:21:07;99892.56;;;13.15;75.23
41531;BME280;58990;46.284;13.126;2022-10-16T06:23:32;99898.38;;;13.25;74.43
41531;BME280;58990;46.284;13.126;2022-10-16T06:26:09;99902.41;;;13.36;74.30
41531;BME280;58990;46.284;13.126;2022-10-16T06:28:35;99916.31;;;13.44;73.36
41531;BME280;58990;46.284;13.126;2022-10-16T06:31:02;99912.59;;;13.54;72.96
41531;BME280;58990;46.284;13.126;2022-10-16T06:33:27;99922.91;;;13.70;71.93
41531;BME280;58990;46.284;13.126;2022-10-16T06:35:53;99936.63;;;13.80;72.06
41531;BME280;58990;46.284;13.126;2022-10-16T06:38:18;99931.06;;;13.90;71.12
41531;BME280;58990;46.284;13.126;2022-10-16T06:40:43;99932.53;;;13.93;70.82
41531;BME280;58990;46.284;13.126;2022-10-16T06:43:09;99935.78;;;13.95;70.69
41531;BME280;58990;46.284;13.126;2022-10-16T06:45:34;99947.22;;;14.02;70.70
41531;BME280;58990;46.284;13.126;2022-10-16T06:47:59;99940.69;;;14.20;70.04
41531;BME280;58990;46.284;13.126;2022-10-16T06:50:25;99942.34;;;14.86;67.53
41531;BME280;58990;46.284;13.126;2022-10-16T06:52:50;99939.75;;;16.18;63.24
41531;BME280;58990;46.284;13.126;2022-10-16T06:55:16;99942.75;;;17.48;58.48
41531;BME280;58990;46.284;13.126;2022-10-16T06:57:42;99954.91;;;18.22;56.02
41531;BME280;58990;46.284;13.126;2022-10-16T07:00:08;99959.41;;;19.29;52.44
41531;BME280;58990;46.284;13.126;2022-10-16T07:02:34;99965.56;;;19.04;52.30
41531;BME280;58990;46.284;13.126;2022-10-16T07:04:59;99969.28;;;18.71;53.50
41531;BME280;58990;46.284;13.126;2022-10-16T07:07:25;99965.75;;;18.52;53.94
41531;BME280;58990;46.284;13.126;2022-10-16T07:09:52;99968.84;;;18.74;52.59
41531;BME280;58990;46.284;13.126;2022-10-16T07:12:17;99977.41;;;19.27;51.68
41531;BME280;58990;46.284;13.126;2022-10-16T07:14:43;99963.34;;;20.12;48.74
41531;BME280;58990;46.284;13.126;2022-10-16T07:17:08;99969.88;;;20.71;47.47
41531;BME280;58990;46.284;13.126;2022-10-16T07:19:34;99979.22;;;20.61;47.50
41531;BME280;58990;46.284;13.126;2022-10-16T07:21:59;99977.81;;;20.59;47.39
41531;BME280;58990;46.284;13.126;2022-10-16T07:24:25;99987.75;;;20.82;46.77
41531;BME280;58990;46.284;13.126;2022-10-16T07:26:53;99998.63;;;21.63;45.44
41531;BME280;58990;46.284;13.126;2022-10-16T07:29:20;99987.63;;;22.00;44.08
41531;BME280;58990;46.284;13.126;2022-10-16T07:31:47;99990.34;;;22.46;42.72
41531;BME280;58990;46.284;13.126;2022-10-16T07:34:14;100006.22;;;22.70;42.70
41531;BME280;58990;46.284;13.126;2022-10-16T07:36:41;100006.47;;;23.59;41.32
41531;BME280;58990;46.284;13.126;2022-10-16T07:39:06;100004.25;;;23.95;39.90
41531;BME280;58990;46.284;13.126;2022-10-16T07:41:32;100015.00;;;23.56;41.33
41531;BME280;58990;46.284;13.126;2022-10-16T07:43:58;100001.09;;;24.58;39.24
41531;BME280;58990;46.284;13.126;2022-10-16T07:46:27;100005.00;;;24.72;38.58
41531;BME280;58990;46.284;13.126;2022-10-16T07:48:53;100014.47;;;25.17;38.04
41531;BME280;58990;46.284;13.126;2022-10-16T07:51:21;100008.88;;;24.87;37.28
41531;BME280;58990;46.284;13.126;2022-10-16T07:53:47;100010.81;;;25.34;36.80
41531;BME280;58990;46.284;13.126;2022-10-16T07:56:13;100011.16;;;25.10;37.39
41531;BME280;58990;46.284;13.126;2022-10-16T07:58:39;100015.59;;;25.32;37.10
41531;BME280;58990;46.284;13.126;2022-10-16T08:01:06;100014.81;;;25.31;37.70
41531;BME280;58990;46.284;13.126;2022-10-16T08:03:32;100020.97;;;24.57;38.74
41531;BME280;58990;46.284;13.126;2022-10-16T08:05:58;100022.47;;;24.47;39.18
41531;BME280;58990;46.284;13.126;2022-10-16T08:08:24;100030.16;;;24.11;39.81
41531;BME280;58990;46.284;13.126;2022-10-16T08:10:49;100025.63;;;24.39;39.51
41531;BME280;58990;46.284;13.126;2022-10-16T08:13:15;100030.41;;;23.88;40.21
41531;BME280;58990;46.284;13.126;2022-10-16T08:15:42;100031.69;;;23.63;40.27
41531;BME280;58990;46.284;13.126;2022-10-16T08:18:09;100037.22;;;23.34;41.95
41531;BME280;58990;46.284;13.126;2022-10-16T08:20:34;100036.75;;;23.20;42.01
41531;BME280;58990;46.284;13.126;2022-10-16T08:23:00;100034.81;;;23.15;41.82
41531;BME280;58990;46.284;13.126;2022-10-16T08:25:26;100039.81;;;22.95;42.73
41531;BME280;58990;46.284;13.126;2022-10-16T08:27:52;100037.06;;;22.90;44.11
41531;BME280;58990;46.284;13.126;2022-10-16T08:30:19;100040.63;;;23.29;42.92
41531;BME280;58990;46.284;13.126;2022-10-16T08:32:45;100048.22;;;23.55;42.64
41531;BME280;58990;46.284;13.126;2022-10-16T08:35:11;100051.94;;;23.54;43.05
41531;BME280;58990;46.284;13.126;2022-10-16T08:37:37;100047.88;;;23.51;42.32
41531;BME280;58990;46.284;13.126;2022-10-16T08:40:05;100049.56;;;23.74;41.84
41531;BME280;58990;46.284;13.126;2022-10-16T08:55:46;100062.53;;;24.05;41.38
41531;BME280;58990;46.284;13.126;2022-10-16T08:58:21;100062.28;;;24.06;40.33
41531;BME280;58990;46.284;13.126;2022-10-16T09:00:50;100062.44;;;23.77;40.75
41531;BME280;58990;46.284;13.126;2022-10-16T09:37:33;100080.94;;;23.96;43.72
41531;BME280;58990;46.284;13.126;2022-10-16T09:39:58;100084.53;;;24.29;43.94
41531;BME280;58990;46.284;13.126;2022-10-16T09:42:30;100082.16;;;23.32;45.03
41531;BME280;58990;46.284;13.126;2022-10-16T09:44:56;100073.25;;;23.82;44.48
41531;BME280;58990;46.284;13.126;2022-10-16T09:47:30;100082.41;;;23.47;45.91
41531;BME280;58990;46.284;13.126;2022-10-16T09:49:58;100088.53;;;23.26;47.18
41531;BME280;58990;46.284;13.126;2022-10-16T09:52:28;100079.78;;;23.13;47.49
41531;BME280;58990;46.284;13.126;2022-10-16T09:54:55;100086.84;;;23.08;47.91
41531;BME280;58990;46.284;13.126;2022-10-16T09:57:22;100083.16;;;23.26;47.79
41531;BME280;58990;46.284;13.126;2022-10-16T09:59:53;100078.63;;;24.05;45.61
41531;BME280;58990;46.284;13.126;2022-10-16T10:02:28;100081.56;;;23.86;45.61
41531;BME280;58990;46.284;13.126;2022-10-16T10:04:54;100076.59;;;24.17;47.54
41531;BME280;58990;46.284;13.126;2022-10-16T10:07:25;100070.50;;;24.22;45.89
41531;BME280;58990;46.284;13.126;2022-10-16T10:09:52;100073.78;;;24.29;45.59
41531;BME280;58990;46.284;13.126;2022-10-16T10:12:26;100063.47;;;24.97;43.82
41531;BME280;58990;46.284;13.126;2022-10-16T10:14:55;100060.22;;;25.33;43.69
41531;BME280;58990;46.284;13.126;2022-10-16T10:17:23;100063.69;;;24.91;43.52
41531;BME280;58990;46.284;13.126;2022-10-16T11:12:55;100039.25;;;24.10;45.53
41531;BME280;58990;46.284;13.126;2022-10-16T11:15:32;100037.66;;;23.48;46.57
41531;BME280;58990;46.284;13.126;2022-10-16T11:18:22;100042.50;;;23.68;46.56
41531;BME280;58990;46.284;13.126;2022-10-16T11:21:03;100044.72;;;23.15;47.02
41531;BME280;58990;46.284;13.126;2022-10-16T11:23:36;100042.50;;;23.29;46.44
41531;BME280;58990;46.284;13.126;2022-10-16T11:26:06;100040.25;;;23.21;47.09
41531;BME280;58990;46.284;13.126;2022-10-16T11:28:40;100046.03;;;23.51;45.93
41531;BME280;58990;46.284;13.126;2022-10-16T11:31:36;100042.16;;;23.08;46.87
41531;BME280;58990;46.284;13.126;2022-10-16T12:10:27;100039.06;;;22.99;47.27
41531;BME280;58990;46.284;13.126;2022-10-16T12:12:54;100037.53;;;22.53;48.85
41531;BME280;58990;46.284;13.126;2022-10-16T12:15:28;100037.34;;;22.42;48.66
41531;BME280;58990;46.284;13.126;2022-10-16T12:17:55;100031.97;;;22.42;49.11
41531;BME280;58990;46.284;13.126;2022-10-16T12:20:27;100031.50;;;22.45;49.33
41531;BME280;58990;46.284;13.126;2022-10-16T13:33:11;100060.75;;;21.82;51.54
41531;BME280;58990;46.284;13.126;2022-10-16T13:41:00;100057.88;;;21.60;52.87
41531;BME280;58990;46.284;13.126;2022-10-16T13:49:15;100070.69;;;21.99;51.47
41531;BME280;58990;46.284;13.126;2022-10-16T14:17:43;100085.38;;;21.37;53.23
41531;BME280;58990;46.284;13.126;2022-10-16T14:20:24;100085.97;;;21.39;53.15
41531;BME280;58990;46.284;13.126;2022-10-16T14:25:34;100092.34;;;21.38;53.29
41531;BME280;58990;46.284;13.126;2022-10-16T14:28:37;100094.63;;;21.23;54.01
41531;BME280;58990;46.284;13.126;2022-10-16T14:33:40;100089.03;;;21.00;54.60
41531;BME280;58990;46.284;13.126;2022-10-16T14:36:12;100096.31;;;20.81;54.94
41531;BME280;58990;46.284;13.126;2022-10-16T14:38:55;100091.13;;;20.68;55.54
41531;BME280;58990;46.284;13.126;2022-10-16T14:41:22;100095.06;;;20.65;55.43
41531;BME280;58990;46.284;13.126;2022-10-16T15:04:57;100086.56;;;20.57;55.38
41531;BME280;58990;46.284;13.126;2022-10-16T15:07:26;100091.88;;;20.57;55.43
41531;BME280;58990;46.284;13.126;2022-10-16T15:23:28;100086.94;;;20.30;57.18
41531;BME280;58990;46.284;13.126;2022-10-16T15:33:39;100091.59;;;20.16;57.57
41531;BME280;58990;46.284;13.126;2022-10-16T15:38:40;100089.03;;;19.91;58.09
41531;BME280;58990;46.284;13.126;2022-10-16T15:41:05;100101.97;;;19.87;58.25
41531;BME280;58990;46.284;13.126;2022-10-16T15:43:30;100094.94;;;19.93;59.01
41531;BME280;58990;46.284;13.126;2022-10-16T15:51:07;100097.94;;;19.78;59.17
41531;BME280;58990;46.284;13.126;2022-10-16T15:53:33;100092.00;;;19.76;59.59
41531;BME280;58990;46.284;13.126;2022-10-16T15:56:02;100087.19;;;19.66;59.85
41531;BME280;58990;46.284;13.126;2022-10-16T15:58:28;100093.81;;;19.57;60.29
41531;BME280;58990;46.284;13.126;2022-10-16T16:00:56;100098.88;;;19.65;59.99
41531;BME280;58990;46.284;13.126;2022-10-16T16:03:22;100086.97;;;19.67;59.96
41531;BME280;58990;46.284;13.126;2022-10-16T16:05:48;100096.66;;;19.62;60.15
41531;BME280;58990;46.284;13.126;2022-10-16T16:08:13;100097.84;;;19.66;60.24
41531;BME280;58990;46.284;13.126;2022-10-16T16:10:39;100105.66;;;19.61;60.26
41531;BME280;58990;46.284;13.126;2022-10-16T16:13:04;100108.31;;;19.61;60.15
41531;BME280;58990;46.284;13.126;2022-10-16T16:15:29;100116.19;;;19.56;60.51
41531;BME280;58990;46.284;13.126;2022-10-16T16:17:55;100115.63;;;19.47;61.40
41531;BME280;58990;46.284;13.126;2022-10-16T16:20:20;100114.66;;;19.41;62.90
41531;BME280;58990;46.284;13.126;2022-10-16T16:22:46;100119.47;;;19.26;63.21
41531;BME280;58990;46.284;13.126;2022-10-16T16:25:11;100126.44;;;19.27;63.54
41531;BME280;58990;46.284;13.126;2022-10-16T16:27:37;100120.44;;;19.06;64.57
41531;BME280;58990;46.284;13.126;2022-10-16T16:30:05;100117.66;;;18.94;64.81
41531;BME280;58990;46.284;13.126;2022-10-16T16:32:32;100122.59;;;18.91;65.33
41531;BME280;58990;46.284;13.126;2022-10-16T16:34:58;100118.94;;;18.78;65.81
41531;BME280;58990;46.284;13.126;2022-10-16T16:37:23;100124.34;;;18.65;66.20
41531;BME280;58990;46.284;13.126;2022-10-16T16:39:49;100126.03;;;18.53;67.08
41531;BME280;58990;46.284;13.126;2022-10-16T16:42:14;100128.75;;;18.39;67.58
41531;BME280;58990;46.284;13.126;2022-10-16T16:44:39;100132.28;;;18.26;67.88
41531;BME280;58990;46.284;13.126;2022-10-16T16:47:05;100133.47;;;18.37;67.09
41531;BME280;58990;46.284;13.126;2022-10-16T16:49:31;100138.00;;;18.23;67.67
41531;BME280;58990;46.284;13.126;2022-10-16T16:51:56;100143.28;;;18.30;66.91
41531;BME280;58990;46.284;13.126;2022-10-16T16:54:22;100145.19;;;18.16;66.88
41531;BME280;58990;46.284;13.126;2022-10-16T16:56:47;100146.22;;;18.08;67.76
41531;BME280;58990;46.284;13.126;2022-10-16T16:59:15;100149.94;;;17.94;67.79
41531;BME280;58990;46.284;13.126;2022-10-16T17:01:41;100147.06;;;17.89;68.44
41531;BME280;58990;46.284;13.126;2022-10-16T17:04:08;100154.41;;;17.80;69.02
41531;BME280;58990;46.284;13.126;2022-10-16T17:06:33;100156.06;;;17.74;69.06
41531;BME280;58990;46.284;13.126;2022-10-16T17:09:01;100156.91;;;17.61;69.40
41531;BME280;58990;46.284;13.126;2022-10-16T17:11:28;100160.16;;;17.63;69.46
41531;BME280;58990;46.284;13.126;2022-10-16T17:13:55;100162.22;;;17.55;69.13
41531;BME280;58990;46.284;13.126;2022-10-16T17:16:22;100165.47;;;17.43;69.58
41531;BME280;58990;46.284;13.126;2022-10-16T17:18:48;100165.44;;;17.30;70.03
41531;BME280;58990;46.284;13.126;2022-10-16T17:21:13;100174.63;;;17.34;69.82
41531;BME280;58990;46.284;13.126;2022-10-16T17:23:38;100179.31;;;17.25;69.59
41531;BME280;58990;46.284;13.126;2022-10-16T17:26:10;100180.53;;;17.23;69.80
41531;BME280;58990;46.284;13.126;2022-10-16T17:28:36;100194.59;;;17.17;69.90
41531;BME280;58990;46.284;13.126;2022-10-16T17:33:59;100192.94;;;16.95;70.71
41531;BME280;58990;46.284;13.126;2022-10-16T17:36:26;100196.81;;;16.93;70.73
41531;BME280;58990;46.284;13.126;2022-10-16T17:38:57;100206.09;;;16.75;71.51
41531;BME280;58990;46.284;13.126;2022-10-16T17:41:24;100205.09;;;16.76;71.45
41531;BME280;58990;46.284;13.126;2022-10-16T17:43:50;100218.69;;;16.67;71.82
41531;BME280;58990;46.284;13.126;2022-10-16T17:46:19;100221.69;;;16.57;72.24
41531;BME280;58990;46.284;13.126;2022-10-16T17:48:47;100218.25;;;16.56;72.25
41531;BME280;58990;46.284;13.126;2022-10-16T17:51:15;100234.13;;;16.56;72.81
41531;BME280;58990;46.284;13.126;2022-10-16T17:53:41;100228.00;;;16.56;72.68
41531;BME280;58990;46.284;13.126;2022-10-16T17:56:09;100223.44;;;16.36;73.73
41531;BME280;58990;46.284;13.126;2022-10-16T17:58:35;100236.63;;;16.29;74.01
41531;BME280;58990;46.284;13.126;2022-10-16T18:01:03;100237.16;;;16.18;74.53
41531;BME280;58990;46.284;13.126;2022-10-16T18:03:35;100229.81;;;16.13;74.80
41531;BME280;58990;46.284;13.126;2022-10-16T18:06:00;100235.84;;;16.07;74.97
41531;BME280;58990;46.284;13.126;2022-10-16T18:08:26;100240.78;;;16.10;74.16
41531;BME280;58990;46.284;13.126;2022-10-16T18:10:51;100248.47;;;16.05;74.43
41531;BME280;58990;46.284;13.126;2022-10-16T18:13:17;100246.84;;;16.04;74.17
41531;BME280;58990;46.284;13.126;2022-10-16T18:15:43;100253.47;;;15.93;74.50
41531;BME280;58990;46.284;13.126;2022-10-16T18:18:09;100245.69;;;15.85;75.25
41531;BME280;58990;46.284;13.126;2022-10-16T18:20:34;100253.03;;;15.90;74.92
41531;BME280;58990;46.284;13.126;2022-10-16T18:23:00;100256.84;;;15.80;75.57
41531;BME280;58990;46.284;13.126;2022-10-16T18:25:25;100253.53;;;15.78;75.78
41531;BME280;58990;46.284;13.126;2022-10-16T18:27:51;100250.28;;;15.76;75.65
41531;BME280;58990;46.284;13.126;2022-10-16T18:30:16;100254.34;;;15.79;75.39
41531;BME280;58990;46.284;13.126;2022-10-16T18:32:42;100256.69;;;15.67;76.26
41531;BME280;58990;46.284;13.126;2022-10-16T18:35:07;100260.47;;;15.58;76.36